sensor_id;sensor_type;location;lat;lon;timestamp;P1;durP1;ratioP1;P2;durP2;ratioP2
4323;SDS011;2175;51.018;6.994;2023-08-24T00:00:12;9.70;;;6.50;;
4323;SDS011;2175;51.018;6.994;2023-08-24T00:02:39;14.10;;;6.60;;
4323;SDS011;2175;51.018;6.994;2023-08-24T00:05:05;9.77;;;7.03;;
4323;SDS011;2175;51.018;6.994;2023-08-24T00:07:31;11.33;;;7.13;;
4323;SDS011;2175;51.018;6.994;2023-08-24T00:09:57;12.57;;;6.90;;
4323;SDS011;2175;51.018;6.994;2023-08-24T00:12:23;12.80;;;6.83;;
4323;SDS011;2175;51.018;6.994;2023-08-24T00:14:50;12.10;;;6.50;;
4323;SDS011;2175;51.018;6.994;2023-08-24T00:17:17;16.63;;;6.23;;
4323;SDS011;2175;51.018;6.994;2023-08-24T00:19:43;13.83;;;7.40;;
4323;SDS011;2175;51.018;6.994;2023-08-24T00:22:09;12.13;;;6.93;;
4323;SDS011;2175;51.018;6.994;2023-08-24T00:24:35;10.73;;;6.13;;
4323;SDS011;2175;51.018;6.994;2023-08-24T00:27:01;10.03;;;6.40;;
4323;SDS011;2175;51.018;6.994;2023-08-24T00:29:27;12.17;;;6.30;;
4323;SDS011;2175;51.018;6.994;2023-08-24T00:31:53;18.00;;;6.90;;
4323;SDS011;2175;51.018;6.994;2023-08-24T00:34:19;10.23;;;6.80;;
4323;SDS011;2175;51.018;6.994;2023-08-24T00:36:45;11.37;;;6.80;;
4323;SDS011;2175;51.018;6.994;2023-08-24T00:39:11;8.17;;;6.60;;
4323;SDS011;2175;51.018;6.994;2023-08-24T00:41:37;11.00;;;6.90;;
4323;SDS011;2175;51.018;6.994;2023-08-24T00:44:03;9.30;;;6.60;;
4323;SDS011;2175;51.018;6.994;2023-08-24T00:46:29;12.40;;;7.63;;
4323;SDS011;2175;51.018;6.994;2023-08-24T00:48:55;11.47;;;7.47;;
4323;SDS011;2175;51.018;6.994;2023-08-24T00:51:24;12.77;;;7.23;;
4323;SDS011;2175;51.018;6.994;2023-08-24T00:53:50;18.70;;;7.60;;
4323;SDS011;2175;51.018;6.994;2023-08-24T00:56:16;9.77;;;7.00;;
4323;SDS011;2175;51.018;6.994;2023-08-24T00:58:45;9.90;;;6.40;;
4323;SDS011;2175;51.018;6.994;2023-08-24T01:01:12;9.50;;;6.70;;
4323;SDS011;2175;51.018;6.994;2023-08-24T01:03:38;11.53;;;6.00;;
4323;SDS011;2175;51.018;6.994;2023-08-24T01:06:04;14.60;;;7.37;;
4323;SDS011;2175;51.018;6.994;2023-08-24T01:08:30;11.87;;;7.40;;
4323;SDS011;2175;51.018;6.994;2023-08-24T01:11:06;13.30;;;7.17;;
4323;SDS011;2175;51.018;6.994;2023-08-24T01:13:53;11.83;;;6.77;;
4323;SDS011;2175;51.018;6.994;2023-08-24T01:16:25;12.10;;;6.93;;
4323;SDS011;2175;51.018;6.994;2023-08-24T01:18:54;8.00;;;6.07;;
4323;SDS011;2175;51.018;6.994;2023-08-24T01:21:21;11.67;;;7.17;;
4323;SDS011;2175;51.018;6.994;2023-08-24T01:26:32;14.10;;;6.90;;
4323;SDS011;2175;51.018;6.994;2023-08-24T01:28:58;10.40;;;6.97;;
4323;SDS011;2175;51.018;6.994;2023-08-24T01:31:25;11.00;;;6.93;;
4323;SDS011;2175;51.018;6.994;2023-08-24T01:33:51;16.27;;;7.23;;
4323;SDS011;2175;51.018;6.994;2023-08-24T01:36:17;10.10;;;6.77;;
4323;SDS011;2175;51.018;6.994;2023-08-24T01:38:43;11.33;;;6.87;;
4323;SDS011;2175;51.018;6.994;2023-08-24T01:43:39;10.43;;;6.60;;
4323;SDS011;2175;51.018;6.994;2023-08-24T01:46:06;15.63;;;7.57;;
4323;SDS011;2175;51.018;6.994;2023-08-24T01:48:33;11.50;;;6.77;;
4323;SDS011;2175;51.018;6.994;2023-08-24T01:50:59;10.73;;;6.93;;
4323;SDS011;2175;51.018;6.994;2023-08-24T01:53:26;9.70;;;6.50;;
4323;SDS011;2175;51.018;6.994;2023-08-24T01:55:52;13.00;;;7.23;;
4323;SDS011;2175;51.018;6.994;2023-08-24T01:58:18;9.37;;;6.17;;
4323;SDS011;2175;51.018;6.994;2023-08-24T02:00:44;13.23;;;6.60;;
4323;SDS011;2175;51.018;6.994;2023-08-24T02:03:10;8.63;;;6.40;;
4323;SDS011;2175;51.018;6.994;2023-08-24T02:05:36;12.20;;;7.07;;
4323;SDS011;2175;51.018;6.994;2023-08-24T02:08:02;12.70;;;7.33;;
4323;SDS011;2175;51.018;6.994;2023-08-24T02:10:29;9.30;;;7.10;;
4323;SDS011;2175;51.018;6.994;2023-08-24T02:12:55;9.30;;;6.37;;
4323;SDS011;2175;51.018;6.994;2023-08-24T02:15:21;10.27;;;6.80;;
4323;SDS011;2175;51.018;6.994;2023-08-24T02:17:47;9.07;;;6.57;;
4323;SDS011;2175;51.018;6.994;2023-08-24T02:20:14;9.40;;;7.20;;
4323;SDS011;2175;51.018;6.994;2023-08-24T02:22:40;8.47;;;6.50;;
4323;SDS011;2175;51.018;6.994;2023-08-24T02:25:06;10.07;;;6.73;;
4323;SDS011;2175;51.018;6.994;2023-08-24T02:27:32;12.10;;;6.20;;
4323;SDS011;2175;51.018;6.994;2023-08-24T02:29:58;12.57;;;7.00;;
4323;SDS011;2175;51.018;6.994;2023-08-24T02:32:25;8.87;;;6.53;;
4323;SDS011;2175;51.018;6.994;2023-08-24T02:34:51;10.70;;;7.03;;
4323;SDS011;2175;51.018;6.994;2023-08-24T02:37:17;10.90;;;6.93;;
4323;SDS011;2175;51.018;6.994;2023-08-24T02:39:43;8.97;;;6.43;;
4323;SDS011;2175;51.018;6.994;2023-08-24T02:42:09;9.87;;;6.80;;
4323;SDS011;2175;51.018;6.994;2023-08-24T02:44:35;9.90;;;6.67;;
4323;SDS011;2175;51.018;6.994;2023-08-24T02:47:01;10.20;;;6.67;;
4323;SDS011;2175;51.018;6.994;2023-08-24T02:49:27;7.37;;;5.90;;
4323;SDS011;2175;51.018;6.994;2023-08-24T02:51:53;10.13;;;6.13;;
4323;SDS011;2175;51.018;6.994;2023-08-24T02:54:19;7.53;;;6.50;;
4323;SDS011;2175;51.018;6.994;2023-08-24T02:56:45;11.27;;;6.77;;
4323;SDS011;2175;51.018;6.994;2023-08-24T02:59:11;15.73;;;6.90;;
4323;SDS011;2175;51.018;6.994;2023-08-24T03:01:37;11.30;;;6.47;;
4323;SDS011;2175;51.018;6.994;2023-08-24T03:04:05;9.70;;;6.50;;
4323;SDS011;2175;51.018;6.994;2023-08-24T03:06:31;9.30;;;6.60;;
4323;SDS011;2175;51.018;6.994;2023-08-24T03:08:59;8.50;;;6.77;;
4323;SDS011;2175;51.018;6.994;2023-08-24T03:11:25;11.20;;;7.10;;
4323;SDS011;2175;51.018;6.994;2023-08-24T03:13:51;9.17;;;6.00;;
4323;SDS011;2175;51.018;6.994;2023-08-24T03:16:17;10.07;;;6.70;;
4323;SDS011;2175;51.018;6.994;2023-08-24T03:18:43;10.30;;;7.00;;
4323;SDS011;2175;51.018;6.994;2023-08-24T03:21:09;12.30;;;7.00;;
4323;SDS011;2175;51.018;6.994;2023-08-24T03:23:35;14.63;;;7.00;;
4323;SDS011;2175;51.018;6.994;2023-08-24T03:26:01;17.63;;;6.60;;
4323;SDS011;2175;51.018;6.994;2023-08-24T03:28:28;9.10;;;6.40;;
4323;SDS011;2175;51.018;6.994;2023-08-24T03:30:54;9.00;;;6.30;;
4323;SDS011;2175;51.018;6.994;2023-08-24T03:33:21;9.20;;;6.43;;
4323;SDS011;2175;51.018;6.994;2023-08-24T03:35:47;11.33;;;7.10;;
4323;SDS011;2175;51.018;6.994;2023-08-24T03:38:13;11.70;;;6.20;;
4323;SDS011;2175;51.018;6.994;2023-08-24T03:40:39;8.70;;;6.33;;
4323;SDS011;2175;51.018;6.994;2023-08-24T03:43:05;10.37;;;7.00;;
4323;SDS011;2175;51.018;6.994;2023-08-24T03:45:31;10.57;;;6.53;;
4323;SDS011;2175;51.018;6.994;2023-08-24T03:47:57;10.60;;;7.23;;
4323;SDS011;2175;51.018;6.994;2023-08-24T03:50:23;10.80;;;5.80;;
4323;SDS011;2175;51.018;6.994;2023-08-24T03:52:49;11.47;;;6.97;;
4323;SDS011;2175;51.018;6.994;2023-08-24T03:55:16;11.50;;;6.47;;
4323;SDS011;2175;51.018;6.994;2023-08-24T03:57:42;10.03;;;6.53;;
4323;SDS011;2175;51.018;6.994;2023-08-24T04:00:08;9.23;;;5.90;;
4323;SDS011;2175;51.018;6.994;2023-08-24T04:02:37;10.00;;;6.57;;
4323;SDS011;2175;51.018;6.994;2023-08-24T04:05:03;12.23;;;6.40;;
4323;SDS011;2175;51.018;6.994;2023-08-24T04:07:29;10.87;;;7.00;;
4323;SDS011;2175;51.018;6.994;2023-08-24T04:09:56;7.83;;;6.47;;
4323;SDS011;2175;51.018;6.994;2023-08-24T04:12:22;9.20;;;6.67;;
4323;SDS011;2175;51.018;6.994;2023-08-24T04:14:48;8.10;;;6.47;;
4323;SDS011;2175;51.018;6.994;2023-08-24T04:17:14;10.17;;;6.57;;
4323;SDS011;2175;51.018;6.994;2023-08-24T04:19:40;13.93;;;6.80;;
4323;SDS011;2175;51.018;6.994;2023-08-24T04:22:06;11.73;;;6.67;;
4323;SDS011;2175;51.018;6.994;2023-08-24T04:24:32;9.47;;;6.17;;
4323;SDS011;2175;51.018;6.994;2023-08-24T04:26:58;8.90;;;6.13;;
4323;SDS011;2175;51.018;6.994;2023-08-24T04:29:24;9.83;;;6.67;;
4323;SDS011;2175;51.018;6.994;2023-08-24T04:31:50;10.43;;;6.17;;
4323;SDS011;2175;51.018;6.994;2023-08-24T04:34:16;11.10;;;6.43;;
4323;SDS011;2175;51.018;6.994;2023-08-24T04:36:42;16.70;;;6.90;;
4323;SDS011;2175;51.018;6.994;2023-08-24T04:39:08;11.43;;;6.90;;
4323;SDS011;2175;51.018;6.994;2023-08-24T04:41:35;11.27;;;7.00;;
4323;SDS011;2175;51.018;6.994;2023-08-24T04:44:01;9.50;;;6.00;;
4323;SDS011;2175;51.018;6.994;2023-08-24T04:46:27;13.53;;;6.10;;
4323;SDS011;2175;51.018;6.994;2023-08-24T04:48:53;10.40;;;6.13;;
4323;SDS011;2175;51.018;6.994;2023-08-24T04:51:19;8.90;;;6.20;;
4323;SDS011;2175;51.018;6.994;2023-08-24T04:53:45;10.67;;;7.17;;
4323;SDS011;2175;51.018;6.994;2023-08-24T04:56:11;11.77;;;6.77;;
4323;SDS011;2175;51.018;6.994;2023-08-24T04:58:37;10.17;;;6.83;;
4323;SDS011;2175;51.018;6.994;2023-08-24T05:01:03;11.03;;;6.70;;
4323;SDS011;2175;51.018;6.994;2023-08-24T05:03:29;10.63;;;7.03;;
4323;SDS011;2175;51.018;6.994;2023-08-24T05:05:55;16.17;;;7.07;;
4323;SDS011;2175;51.018;6.994;2023-08-24T05:08:21;12.80;;;7.20;;
4323;SDS011;2175;51.018;6.994;2023-08-24T05:10:47;10.10;;;7.20;;
4323;SDS011;2175;51.018;6.994;2023-08-24T05:13:13;12.50;;;7.63;;
4323;SDS011;2175;51.018;6.994;2023-08-24T05:15:39;18.60;;;7.00;;
4323;SDS011;2175;51.018;6.994;2023-08-24T05:18:05;10.40;;;7.27;;
4323;SDS011;2175;51.018;6.994;2023-08-24T05:20:32;12.53;;;6.83;;
4323;SDS011;2175;51.018;6.994;2023-08-24T05:22:58;13.80;;;7.60;;
4323;SDS011;2175;51.018;6.994;2023-08-24T05:25:24;11.37;;;7.10;;
4323;SDS011;2175;51.018;6.994;2023-08-24T05:27:50;10.47;;;6.67;;
4323;SDS011;2175;51.018;6.994;2023-08-24T05:30:17;14.80;;;7.97;;
4323;SDS011;2175;51.018;6.994;2023-08-24T05:32:43;10.87;;;7.80;;
4323;SDS011;2175;51.018;6.994;2023-08-24T05:35:09;14.70;;;7.80;;
4323;SDS011;2175;51.018;6.994;2023-08-24T05:37:35;13.60;;;7.30;;
4323;SDS011;2175;51.018;6.994;2023-08-24T05:40:01;13.77;;;7.97;;
4323;SDS011;2175;51.018;6.994;2023-08-24T05:42:28;12.87;;;7.13;;
4323;SDS011;2175;51.018;6.994;2023-08-24T05:44:54;10.47;;;6.43;;
4323;SDS011;2175;51.018;6.994;2023-08-24T05:47:20;9.47;;;6.70;;
4323;SDS011;2175;51.018;6.994;2023-08-24T05:49:46;11.70;;;7.47;;
4323;SDS011;2175;51.018;6.994;2023-08-24T05:52:12;14.97;;;7.47;;
4323;SDS011;2175;51.018;6.994;2023-08-24T05:54:38;11.17;;;7.07;;
4323;SDS011;2175;51.018;6.994;2023-08-24T05:57:04;11.30;;;6.83;;
4323;SDS011;2175;51.018;6.994;2023-08-24T05:59:31;14.43;;;7.70;;
4323;SDS011;2175;51.018;6.994;2023-08-24T06:01:57;14.50;;;7.57;;
4323;SDS011;2175;51.018;6.994;2023-08-24T06:04:23;11.90;;;7.20;;
4323;SDS011;2175;51.018;6.994;2023-08-24T06:06:49;11.97;;;7.10;;
4323;SDS011;2175;51.018;6.994;2023-08-24T06:09:15;19.77;;;7.57;;
4323;SDS011;2175;51.018;6.994;2023-08-24T06:11:41;9.17;;;6.90;;
4323;SDS011;2175;51.018;6.994;2023-08-24T06:14:07;11.53;;;7.20;;
4323;SDS011;2175;51.018;6.994;2023-08-24T06:16:33;9.80;;;7.40;;
4323;SDS011;2175;51.018;6.994;2023-08-24T06:18:59;10.87;;;6.70;;
4323;SDS011;2175;51.018;6.994;2023-08-24T06:21:26;12.20;;;6.97;;
4323;SDS011;2175;51.018;6.994;2023-08-24T06:23:52;12.93;;;6.57;;
4323;SDS011;2175;51.018;6.994;2023-08-24T06:26:18;7.80;;;7.00;;
4323;SDS011;2175;51.018;6.994;2023-08-24T06:28:44;13.30;;;6.73;;
4323;SDS011;2175;51.018;6.994;2023-08-24T06:31:10;15.00;;;7.00;;
4323;SDS011;2175;51.018;6.994;2023-08-24T06:33:37;12.40;;;6.60;;
4323;SDS011;2175;51.018;6.994;2023-08-24T06:36:04;9.30;;;7.17;;
4323;SDS011;2175;51.018;6.994;2023-08-24T06:38:30;9.33;;;7.07;;
4323;SDS011;2175;51.018;6.994;2023-08-24T06:40:59;9.93;;;7.17;;
4323;SDS011;2175;51.018;6.994;2023-08-24T06:43:26;29.47;;;7.43;;
4323;SDS011;2175;51.018;6.994;2023-08-24T06:45:53;11.77;;;7.40;;
4323;SDS011;2175;51.018;6.994;2023-08-24T06:48:19;15.00;;;6.60;;
4323;SDS011;2175;51.018;6.994;2023-08-24T06:50:45;10.97;;;7.03;;
4323;SDS011;2175;51.018;6.994;2023-08-24T06:53:11;10.90;;;7.27;;
4323;SDS011;2175;51.018;6.994;2023-08-24T06:55:39;8.90;;;6.50;;
4323;SDS011;2175;51.018;6.994;2023-08-24T06:58:05;12.40;;;7.07;;
4323;SDS011;2175;51.018;6.994;2023-08-24T07:00:32;12.33;;;7.17;;
4323;SDS011;2175;51.018;6.994;2023-08-24T07:03:01;13.40;;;7.00;;
4323;SDS011;2175;51.018;6.994;2023-08-24T07:05:27;10.87;;;7.40;;
4323;SDS011;2175;51.018;6.994;2023-08-24T07:07:54;10.30;;;6.97;;
4323;SDS011;2175;51.018;6.994;2023-08-24T07:10:20;11.87;;;6.87;;
4323;SDS011;2175;51.018;6.994;2023-08-24T07:12:46;9.00;;;5.87;;
4323;SDS011;2175;51.018;6.994;2023-08-24T07:15:12;8.37;;;6.30;;
4323;SDS011;2175;51.018;6.994;2023-08-24T07:17:38;8.53;;;6.00;;
4323;SDS011;2175;51.018;6.994;2023-08-24T07:20:05;9.37;;;5.70;;
4323;SDS011;2175;51.018;6.994;2023-08-24T07:22:31;9.20;;;5.87;;
4323;SDS011;2175;51.018;6.994;2023-08-24T07:24:57;9.10;;;5.43;;
4323;SDS011;2175;51.018;6.994;2023-08-24T07:27:23;10.00;;;6.50;;
4323;SDS011;2175;51.018;6.994;2023-08-24T07:29:49;12.87;;;5.70;;
4323;SDS011;2175;51.018;6.994;2023-08-24T07:32:15;7.60;;;5.87;;
4323;SDS011;2175;51.018;6.994;2023-08-24T07:34:41;8.80;;;5.47;;
4323;SDS011;2175;51.018;6.994;2023-08-24T07:37:07;9.73;;;5.53;;
4323;SDS011;2175;51.018;6.994;2023-08-24T07:39:34;5.73;;;4.60;;
4323;SDS011;2175;51.018;6.994;2023-08-24T07:42:00;7.20;;;4.53;;
4323;SDS011;2175;51.018;6.994;2023-08-24T07:44:26;11.33;;;5.80;;
4323;SDS011;2175;51.018;6.994;2023-08-24T07:46:52;7.63;;;4.27;;
4323;SDS011;2175;51.018;6.994;2023-08-24T07:49:17;7.60;;;4.57;;
4323;SDS011;2175;51.018;6.994;2023-08-24T07:51:43;7.97;;;4.27;;
4323;SDS011;2175;51.018;6.994;2023-08-24T07:54:12;8.13;;;4.80;;
4323;SDS011;2175;51.018;6.994;2023-08-24T07:56:38;6.83;;;4.27;;
4323;SDS011;2175;51.018;6.994;2023-08-24T07:59:04;5.80;;;4.10;;
4323;SDS011;2175;51.018;6.994;2023-08-24T08:01:30;5.53;;;4.23;;
4323;SDS011;2175;51.018;6.994;2023-08-24T08:03:56;10.93;;;4.30;;
4323;SDS011;2175;51.018;6.994;2023-08-24T08:06:22;7.50;;;3.67;;
4323;SDS011;2175;51.018;6.994;2023-08-24T08:08:49;5.70;;;3.40;;
4323;SDS011;2175;51.018;6.994;2023-08-24T08:11:16;6.03;;;3.47;;
4323;SDS011;2175;51.018;6.994;2023-08-24T08:13:42;7.70;;;3.70;;
4323;SDS011;2175;51.018;6.994;2023-08-24T08:16:09;5.03;;;3.43;;
4323;SDS011;2175;51.018;6.994;2023-08-24T08:18:35;7.33;;;3.90;;
4323;SDS011;2175;51.018;6.994;2023-08-24T08:21:01;10.90;;;3.63;;
4323;SDS011;2175;51.018;6.994;2023-08-24T08:23:34;5.77;;;3.43;;
4323;SDS011;2175;51.018;6.994;2023-08-24T08:25:59;5.90;;;3.77;;
4323;SDS011;2175;51.018;6.994;2023-08-24T08:28:25;4.83;;;3.33;;
4323;SDS011;2175;51.018;6.994;2023-08-24T08:30:51;5.90;;;3.37;;
4323;SDS011;2175;51.018;6.994;2023-08-24T08:33:17;5.60;;;3.40;;
4323;SDS011;2175;51.018;6.994;2023-08-24T08:35:44;10.57;;;3.33;;
4323;SDS011;2175;51.018;6.994;2023-08-24T08:38:10;4.83;;;3.33;;
4323;SDS011;2175;51.018;6.994;2023-08-24T08:40:37;5.73;;;2.97;;
4323;SDS011;2175;51.018;6.994;2023-08-24T08:43:03;6.87;;;3.63;;
4323;SDS011;2175;51.018;6.994;2023-08-24T08:45:29;5.40;;;3.00;;
4323;SDS011;2175;51.018;6.994;2023-08-24T08:47:56;4.83;;;3.50;;
4323;SDS011;2175;51.018;6.994;2023-08-24T08:50:23;6.93;;;3.50;;
4323;SDS011;2175;51.018;6.994;2023-08-24T08:52:50;5.27;;;2.77;;
4323;SDS011;2175;51.018;6.994;2023-08-24T08:55:16;3.57;;;3.03;;
4323;SDS011;2175;51.018;6.994;2023-08-24T08:57:42;7.47;;;3.70;;
4323;SDS011;2175;51.018;6.994;2023-08-24T09:00:10;4.80;;;2.80;;
4323;SDS011;2175;51.018;6.994;2023-08-24T09:02:38;6.53;;;3.57;;
4323;SDS011;2175;51.018;6.994;2023-08-24T09:05:05;4.23;;;3.10;;
4323;SDS011;2175;51.018;6.994;2023-08-24T09:07:32;6.10;;;3.20;;
4323;SDS011;2175;51.018;6.994;2023-08-24T09:09:58;5.00;;;3.10;;
4323;SDS011;2175;51.018;6.994;2023-08-24T09:12:24;7.10;;;3.53;;
4323;SDS011;2175;51.018;6.994;2023-08-24T09:14:50;4.43;;;3.30;;
4323;SDS011;2175;51.018;6.994;2023-08-24T09:17:20;5.03;;;3.10;;
4323;SDS011;2175;51.018;6.994;2023-08-24T09:19:47;8.80;;;3.60;;
4323;SDS011;2175;51.018;6.994;2023-08-24T09:22:15;5.47;;;2.93;;
4323;SDS011;2175;51.018;6.994;2023-08-24T09:24:41;3.60;;;3.10;;
4323;SDS011;2175;51.018;6.994;2023-08-24T09:29:42;7.03;;;3.20;;
4323;SDS011;2175;51.018;6.994;2023-08-24T09:32:08;3.93;;;3.13;;
4323;SDS011;2175;51.018;6.994;2023-08-24T09:34:35;6.00;;;4.00;;
4323;SDS011;2175;51.018;6.994;2023-08-24T09:37:01;4.50;;;2.80;;
4323;SDS011;2175;51.018;6.994;2023-08-24T09:39:30;3.20;;;2.90;;
4323;SDS011;2175;51.018;6.994;2023-08-24T09:42:00;4.93;;;3.10;;
4323;SDS011;2175;51.018;6.994;2023-08-24T09:44:29;4.20;;;3.20;;
4323;SDS011;2175;51.018;6.994;2023-08-24T09:46:55;4.57;;;3.27;;
4323;SDS011;2175;51.018;6.994;2023-08-24T09:49:21;4.80;;;3.27;;
4323;SDS011;2175;51.018;6.994;2023-08-24T09:51:47;3.23;;;2.80;;
4323;SDS011;2175;51.018;6.994;2023-08-24T09:54:14;5.33;;;3.10;;
4323;SDS011;2175;51.018;6.994;2023-08-24T09:56:41;5.93;;;3.30;;
4323;SDS011;2175;51.018;6.994;2023-08-24T09:59:15;12.90;;;3.43;;
4323;SDS011;2175;51.018;6.994;2023-08-24T10:01:47;4.43;;;3.30;;
4323;SDS011;2175;51.018;6.994;2023-08-24T10:04:23;4.10;;;3.23;;
4323;SDS011;2175;51.018;6.994;2023-08-24T10:06:51;5.80;;;3.10;;
4323;SDS011;2175;51.018;6.994;2023-08-24T10:09:22;5.00;;;3.40;;
4323;SDS011;2175;51.018;6.994;2023-08-24T10:11:52;3.30;;;2.60;;
4323;SDS011;2175;51.018;6.994;2023-08-24T10:15:03;5.80;;;3.33;;
4323;SDS011;2175;51.018;6.994;2023-08-24T10:17:10;7.13;;;3.33;;
4323;SDS011;2175;51.018;6.994;2023-08-24T10:19:37;6.07;;;3.53;;
4323;SDS011;2175;51.018;6.994;2023-08-24T10:22:03;4.67;;;3.10;;
4323;SDS011;2175;51.018;6.994;2023-08-24T10:24:31;5.20;;;3.33;;
4323;SDS011;2175;51.018;6.994;2023-08-24T10:26:57;4.23;;;3.10;;
4323;SDS011;2175;51.018;6.994;2023-08-24T10:29:23;4.10;;;3.10;;
4323;SDS011;2175;51.018;6.994;2023-08-24T10:31:52;4.57;;;3.30;;
4323;SDS011;2175;51.018;6.994;2023-08-24T10:34:19;7.57;;;3.00;;
4323;SDS011;2175;51.018;6.994;2023-08-24T10:36:47;12.23;;;3.37;;
4323;SDS011;2175;51.018;6.994;2023-08-24T10:39:14;6.37;;;3.57;;
4323;SDS011;2175;51.018;6.994;2023-08-24T10:41:50;3.53;;;3.00;;
4323;SDS011;2175;51.018;6.994;2023-08-24T10:44:35;5.50;;;3.27;;
4323;SDS011;2175;51.018;6.994;2023-08-24T10:49:38;4.97;;;3.00;;
4323;SDS011;2175;51.018;6.994;2023-08-24T10:52:17;3.83;;;3.27;;
4323;SDS011;2175;51.018;6.994;2023-08-24T10:54:45;4.73;;;3.40;;
4323;SDS011;2175;51.018;6.994;2023-08-24T10:59:56;6.63;;;3.63;;
4323;SDS011;2175;51.018;6.994;2023-08-24T11:02:24;5.97;;;3.23;;
4323;SDS011;2175;51.018;6.994;2023-08-24T11:05:06;3.90;;;2.93;;
4323;SDS011;2175;51.018;6.994;2023-08-24T11:07:34;3.80;;;3.10;;
4323;SDS011;2175;51.018;6.994;2023-08-24T11:10:00;6.30;;;3.10;;
4323;SDS011;2175;51.018;6.994;2023-08-24T11:15:33;7.20;;;3.53;;
4323;SDS011;2175;51.018;6.994;2023-08-24T11:25:45;6.20;;;3.43;;
4323;SDS011;2175;51.018;6.994;2023-08-24T11:28:13;10.60;;;4.10;;
4323;SDS011;2175;51.018;6.994;2023-08-24T11:30:42;7.07;;;3.30;;
4323;SDS011;2175;51.018;6.994;2023-08-24T11:33:08;8.67;;;3.60;;
4323;SDS011;2175;51.018;6.994;2023-08-24T11:35:35;10.30;;;4.37;;
4323;SDS011;2175;51.018;6.994;2023-08-24T11:38:02;8.33;;;3.77;;
4323;SDS011;2175;51.018;6.994;2023-08-24T11:40:28;5.80;;;3.53;;
4323;SDS011;2175;51.018;6.994;2023-08-24T11:42:58;6.10;;;3.30;;
4323;SDS011;2175;51.018;6.994;2023-08-24T11:45:24;8.97;;;3.93;;
4323;SDS011;2175;51.018;6.994;2023-08-24T11:47:55;6.00;;;3.50;;
4323;SDS011;2175;51.018;6.994;2023-08-24T11:50:22;4.90;;;3.40;;
4323;SDS011;2175;51.018;6.994;2023-08-24T11:52:48;8.40;;;3.43;;
4323;SDS011;2175;51.018;6.994;2023-08-24T11:55:14;5.53;;;3.40;;
4323;SDS011;2175;51.018;6.994;2023-08-24T11:57:41;4.30;;;3.17;;
4323;SDS011;2175;51.018;6.994;2023-08-24T12:00:08;8.53;;;4.13;;
4323;SDS011;2175;51.018;6.994;2023-08-24T12:02:34;5.83;;;3.50;;
4323;SDS011;2175;51.018;6.994;2023-08-24T12:05:01;6.00;;;3.50;;
4323;SDS011;2175;51.018;6.994;2023-08-24T12:07:31;6.00;;;4.00;;
4323;SDS011;2175;51.018;6.994;2023-08-24T12:09:59;5.63;;;3.57;;
4323;SDS011;2175;51.018;6.994;2023-08-24T12:12:26;9.70;;;3.70;;
4323;SDS011;2175;51.018;6.994;2023-08-24T12:14:54;6.00;;;3.60;;
4323;SDS011;2175;51.018;6.994;2023-08-24T12:17:22;6.40;;;3.50;;
4323;SDS011;2175;51.018;6.994;2023-08-24T12:19:59;7.13;;;3.87;;
4323;SDS011;2175;51.018;6.994;2023-08-24T12:22:25;5.67;;;4.00;;
4323;SDS011;2175;51.018;6.994;2023-08-24T12:24:51;6.40;;;3.70;;
4323;SDS011;2175;51.018;6.994;2023-08-24T12:27:21;4.27;;;3.47;;
4323;SDS011;2175;51.018;6.994;2023-08-24T12:29:48;5.43;;;3.73;;
4323;SDS011;2175;51.018;6.994;2023-08-24T12:32:14;11.83;;;3.60;;
4323;SDS011;2175;51.018;6.994;2023-08-24T12:34:41;13.50;;;3.80;;
4323;SDS011;2175;51.018;6.994;2023-08-24T12:37:08;8.67;;;4.10;;
4323;SDS011;2175;51.018;6.994;2023-08-24T12:39:38;6.17;;;3.53;;
4323;SDS011;2175;51.018;6.994;2023-08-24T12:42:05;11.03;;;3.77;;
4323;SDS011;2175;51.018;6.994;2023-08-24T12:44:31;5.70;;;3.93;;
4323;SDS011;2175;51.018;6.994;2023-08-24T12:46:58;8.70;;;4.00;;
4323;SDS011;2175;51.018;6.994;2023-08-24T12:49:24;6.33;;;4.10;;
4323;SDS011;2175;51.018;6.994;2023-08-24T12:51:50;8.60;;;4.40;;
4323;SDS011;2175;51.018;6.994;2023-08-24T12:54:16;7.17;;;4.23;;
4323;SDS011;2175;51.018;6.994;2023-08-24T12:56:42;7.43;;;4.07;;
4323;SDS011;2175;51.018;6.994;2023-08-24T12:59:08;11.87;;;4.10;;
4323;SDS011;2175;51.018;6.994;2023-08-24T13:01:34;7.73;;;4.40;;
4323;SDS011;2175;51.018;6.994;2023-08-24T13:04:00;7.53;;;4.80;;
4323;SDS011;2175;51.018;6.994;2023-08-24T13:06:26;7.30;;;4.67;;
4323;SDS011;2175;51.018;6.994;2023-08-24T13:08:52;8.23;;;4.73;;
4323;SDS011;2175;51.018;6.994;2023-08-24T13:11:19;12.30;;;4.63;;
4323;SDS011;2175;51.018;6.994;2023-08-24T13:13:44;9.90;;;5.00;;
4323;SDS011;2175;51.018;6.994;2023-08-24T13:16:10;12.67;;;5.00;;
4323;SDS011;2175;51.018;6.994;2023-08-24T13:18:36;13.37;;;4.43;;
4323;SDS011;2175;51.018;6.994;2023-08-24T13:21:02;12.03;;;5.00;;
4323;SDS011;2175;51.018;6.994;2023-08-24T13:23:28;16.00;;;4.80;;
4323;SDS011;2175;51.018;6.994;2023-08-24T13:25:56;18.83;;;4.93;;
4323;SDS011;2175;51.018;6.994;2023-08-24T13:28:23;11.27;;;4.90;;
4323;SDS011;2175;51.018;6.994;2023-08-24T13:30:49;12.50;;;5.07;;
4323;SDS011;2175;51.018;6.994;2023-08-24T13:33:15;10.83;;;4.97;;
4323;SDS011;2175;51.018;6.994;2023-08-24T13:35:41;8.97;;;5.20;;
4323;SDS011;2175;51.018;6.994;2023-08-24T13:38:07;7.30;;;4.63;;
4323;SDS011;2175;51.018;6.994;2023-08-24T13:40:33;8.53;;;4.50;;
4323;SDS011;2175;51.018;6.994;2023-08-24T13:42:59;10.17;;;5.03;;
4323;SDS011;2175;51.018;6.994;2023-08-24T13:45:25;12.63;;;4.57;;
4323;SDS011;2175;51.018;6.994;2023-08-24T13:47:51;12.97;;;5.00;;
4323;SDS011;2175;51.018;6.994;2023-08-24T13:50:17;8.30;;;4.80;;
4323;SDS011;2175;51.018;6.994;2023-08-24T13:52:43;9.83;;;4.60;;
4323;SDS011;2175;51.018;6.994;2023-08-24T13:55:09;8.73;;;4.80;;
4323;SDS011;2175;51.018;6.994;2023-08-24T13:57:35;8.30;;;4.63;;
4323;SDS011;2175;51.018;6.994;2023-08-24T14:02:33;7.67;;;4.20;;
4323;SDS011;2175;51.018;6.994;2023-08-24T14:04:59;6.87;;;4.10;;
4323;SDS011;2175;51.018;6.994;2023-08-24T14:07:25;8.23;;;4.30;;
4323;SDS011;2175;51.018;6.994;2023-08-24T14:09:51;9.07;;;4.43;;
4323;SDS011;2175;51.018;6.994;2023-08-24T14:12:17;8.20;;;4.10;;
4323;SDS011;2175;51.018;6.994;2023-08-24T14:14:43;6.40;;;4.23;;
4323;SDS011;2175;51.018;6.994;2023-08-24T14:17:09;6.10;;;3.80;;
4323;SDS011;2175;51.018;6.994;2023-08-24T14:19:35;8.67;;;4.17;;
4323;SDS011;2175;51.018;6.994;2023-08-24T14:22:01;6.63;;;3.87;;
4323;SDS011;2175;51.018;6.994;2023-08-24T14:24:27;7.17;;;4.30;;
4323;SDS011;2175;51.018;6.994;2023-08-24T14:26:54;8.43;;;4.17;;
4323;SDS011;2175;51.018;6.994;2023-08-24T14:29:20;9.07;;;4.43;;
4323;SDS011;2175;51.018;6.994;2023-08-24T14:31:46;8.83;;;4.13;;
4323;SDS011;2175;51.018;6.994;2023-08-24T14:34:12;11.40;;;4.30;;
4323;SDS011;2175;51.018;6.994;2023-08-24T14:36:38;6.37;;;4.13;;
4323;SDS011;2175;51.018;6.994;2023-08-24T14:39:04;10.50;;;4.70;;
4323;SDS011;2175;51.018;6.994;2023-08-24T14:41:34;11.30;;;4.50;;
4323;SDS011;2175;51.018;6.994;2023-08-24T14:44:00;10.50;;;4.07;;
4323;SDS011;2175;51.018;6.994;2023-08-24T14:46:26;5.10;;;3.93;;
4323;SDS011;2175;51.018;6.994;2023-08-24T14:48:52;5.77;;;3.73;;
4323;SDS011;2175;51.018;6.994;2023-08-24T14:51:18;7.13;;;3.77;;
4323;SDS011;2175;51.018;6.994;2023-08-24T14:53:44;8.07;;;4.00;;
4323;SDS011;2175;51.018;6.994;2023-08-24T14:56:10;8.80;;;4.00;;
4323;SDS011;2175;51.018;6.994;2023-08-24T14:58:36;9.70;;;3.60;;
4323;SDS011;2175;51.018;6.994;2023-08-24T15:01:02;7.03;;;3.50;;
4323;SDS011;2175;51.018;6.994;2023-08-24T15:03:28;6.30;;;3.10;;
4323;SDS011;2175;51.018;6.994;2023-08-24T15:06:01;9.10;;;4.10;;
4323;SDS011;2175;51.018;6.994;2023-08-24T15:08:34;7.37;;;3.07;;
4323;SDS011;2175;51.018;6.994;2023-08-24T15:11:01;16.10;;;4.10;;
4323;SDS011;2175;51.018;6.994;2023-08-24T15:13:28;6.33;;;3.40;;
4323;SDS011;2175;51.018;6.994;2023-08-24T15:15:56;4.20;;;3.13;;
4323;SDS011;2175;51.018;6.994;2023-08-24T15:18:25;9.67;;;4.00;;
4323;SDS011;2175;51.018;6.994;2023-08-24T15:20:51;8.73;;;3.53;;
4323;SDS011;2175;51.018;6.994;2023-08-24T15:23:27;10.00;;;3.77;;
4323;SDS011;2175;51.018;6.994;2023-08-24T15:25:54;8.40;;;3.50;;
4323;SDS011;2175;51.018;6.994;2023-08-24T15:28:20;10.90;;;4.00;;
4323;SDS011;2175;51.018;6.994;2023-08-24T15:30:46;12.67;;;4.00;;
4323;SDS011;2175;51.018;6.994;2023-08-24T15:33:13;7.70;;;3.77;;